Brant, MI (48614)

2:13 AM EST en Noviembre 23, 2014 (GMT -0500)
Hoovers Corners | Change Station
CLOSE
Current Station
Estación meteorológica personal
Location: Elsie, MI
Altura: 741 ft
Estaciones meteorológicas cercanas

Alt 741 ft 43.10 °N, 84.34 °W | Updated 5 minutes ago

Nublado
Nublado
48.5 ° F
Sensación térmica 46 ° F
N
6.0
Viento Variable Viento desde SSO
Gusts 10.0 mph

Hoy
Alta -- | Baja -- ° F
--% Posibilidad de precipitaciones
Ayer
Alta -- | Baja -- ° F
Precip. -- pul
7:40 AM 5:06 PM
Luna nueva, 1% visible
Presión 29.89 pul
Visibilidad 10.0 Millas
Nubes Nublado 2200 ft
Vientos helados 46 ° F
Punto de rocío 46 ° F
Humedad 91%
Precipitaciones 0.00 pul
Espesor de la nieve No disponible.
UV 0 de una escala de 12
Polen .10 de una escala de 12
Calidad del aire No disponible.
Flu Activity No disponible.
METAR KRNP 230653Z AUTO 21007KT 10SM OVC022 10/08 A2989 RMK AO2 T01000077

More Conditions Fewer Conditions

Presión 29.89 pul
Visibilidad 10.0 Millas
Nubes Nublado 2200 ft
Vientos helados 46 ° F
Punto de rocío 46 ° F
Humedad 91%
Precipitaciones 0.00 pul
Espesor de la nieve No disponible.
UV 0 de una escala de 12
Polen .10 de una escala de 12
Calidad del aire No disponible.
Flu Activity No disponible.
METAR KRNP 230653Z AUTO 21007KT 10SM OVC022 10/08 A2989 RMK AO2 T01000077

More Conditions Fewer Conditions

10-Day Weather Forecast

Almanac

Astronomía

Nov. 23, 2014 Salida Puesta
Hora real
Crepúsculo civil
Crepúsculo náutico
Crepúsculo astronómico
Luna
Horas de luz
Horas de luz
Tomorrow will be .
, % of the Moon is Illuminated

Extremos de hoy

Máximos del estado Bajos del estado

Community

WunderPhotos

Upload Photos

1,773,024 ¡fotos cargadas!

WunderBlogs® & News

Nearby

Calidad del aire

  Calidad del aire Índice AQ Contaminante
Not available.

Grosos de nieve

Estación Profundido Altura

Actividad de terremotos

Ciudad Distance Mag. Tiempo y dato
Magnitud mínima muestra es 2,5.

Temperaturas de aguas costeras

Lugar Temperatura

Estaciones meteorológicas cercanas